Tiempo atmosférico en la estación meteorológica de Velilla del Río Carrión, Camporredondo de Alba, Palencia (1575 m.)



Fecha
DESCASC
Temp. máxima en grados centígrados (hora)
DESCASC
Temp. mínima en grados centígrados (hora)
DESCASC
Temp. media en grados centígrados
DESCASC
Racha de viento máxima en m/sg (hora)
DESCASC
Velocidad máxima media en intervalos de 10 minutos(hora)
DESCASC
Precipitaciones diarias en mm
DESCASC
Precipitaciones de 00:00 a 06:00 en mm
DESCASC
Precipitaciones de 06:00 a 12:00 en mm
DESCASC
Precipitaciones de 12:00 a 18:00 en mm
DESCASC
Precipitaciones de 18:00 a 24:00 en mm
DESCASC
18-04-2019 7.8 (00:00) 2.8 (07:40) 5.3 16.94 (01:10) 9.44 (01:10) 19 6.6 0.8 4.6 7
17-04-2019 11.5 (14:10) 4.5 (07:40) 8 21.11 (20:50) 11.94 (20:50) 0.8 0 0 0 0.8
16-04-2019 13.1 (16:40) 1.6 (00:00) 7.4 10.83 (18:20) 6.11 (15:10) 0 0 0 0 0
15-04-2019 12.1 (12:20) 3 (00:00) 7.6 21.39 (13:30) 13.61 (13:30) 12.4 0 0 12.4 0
14-04-2019 18.1 (15:10) 5.9 (00:00) 12 8.89 (17:50) 6.39 (19:40) 0 0 0 0 0
13-04-2019 14.9 (17:30) 2.8 (00:00) 8.8 11.94 (16:40) 7.5 (16:40) 0 0 0 0 0
12-04-2019 14.1 (16:50) -1.6 (-00:0) 6.3 6.67 (14:40) 4.17 (19:20) 0 0 0 0 0
11-04-2019 8.7 (17:30) -1.8 (-00:0) 3.4 7.5 (20:30) 4.72 (21:30) 0 0 0 0 0
10-04-2019 6.5 (16:50) -1.9 (-00:0) 2.3 8.33 (18:10) 6.11 (18:10) 4.2 0 1.6 2.6 0
09-04-2019 4.7 (19:40) -0.9 (-00:0) 1.9 11.67 (02:50) 8.33 (02:50) 2.4 0 1.6 0.6 0.2
08-04-2019 7.2 (16:10) -1.1 (-00:0) 3 13.61 (15:50) 8.33 (14:40) 5.6 0 5.4 0 0.2
07-04-2019 6.8 (16:30) -3.3 (-00:0) 1.8 13.89 (18:00) 9.44 (18:10) 1.2 0.2 0.8 0 0.2
06-04-2019 3.2 (17:00) -3.4 (-00:0) -0.1 10.83 (18:20) 7.5 (22:10) 1.6 0 0 1.4 0.2
05-04-2019 2.8 (17:30) -2.5 (-00:0) 0.1 9.72 (08:00) 6.67 (13:50) 10 0 0.6 9.4 0
04-04-2019 2.2 (16:40) -6.1 (-00:0) -1.9 15.83 (15:10) 10 (15:00) 1.6 0 1.4 0.2 0
03-04-2019 2.6 (16:20) -5.3 (23:30) -1.4 15.83 (14:00) 8.89 (14:00) 0.4 0 0 0.4 0
02-04-2019 13.6 (15:10) 0.7 (00:00) 7.2 11.39 (16:10) 6.39 (16:10) 0 0 0 0 0
01-04-2019 13.8 (13:50) 0.5 (00:00) 7.2 7.78 (15:10) 5 (03:50) 0 0 0 0 0
31-03-2019 13.8 (13:30) 2.1 (00:00) 8 11.11 (18:50) 7.78 (18:50) 0 0 0 0 0
30-03-2019 13.3 (11:40) 2.6 (00:00) 8 8.89 (13:00) 5 (12:10) 0 0 0 0 0
29-03-2019 14.2 (13:50) 1.8 (00:00) 8 12.5 (15:20) 6.39 (16:40) 0 0 0 0 0
28-03-2019 14.1 (15:00) 4.1 (00:00) 9.1 14.72 (06:20) 10.28 (07:50) 0 0 0 0 0
27-03-2019 12.5 (13:00) 2.4 (00:00) 7.5 16.94 (14:30) 12.78 (14:40) 0 0 0 0 0
26-03-2019 10.4 (13:20) -0.7 (-00:0) 4.8 18.06 (05:50) 14.17 (06:30) 0 0 0 0 0
25-03-2019 11.3 (11:10) 1.1 (00:00) 6.2 17.78 (20:50) 13.33 (19:00) 0 0 0 0 0
24-03-2019 15 (14:50) 3.7 (00:00) 9.4 9.17 (15:20) 5.83 (17:40) 0 0 0 0 0
23-03-2019 15.5 (14:10) 3.3 (00:00) 9.4 8.06 (16:10) 4.72 (16:10) 0 0 0 0 0
22-03-2019 14.6 (15:40) 0.9 (00:00) 7.8 7.5 (11:00) 4.72 (11:20) 0 0 0 0 0
21-03-2019 11.1 (14:40) -2.3 (-00:0) 4.4 13.61 (01:30) 9.44 (01:30) 0 0 0 0 0

Gráficas

Temp. máximas Temp. mínimas Temp. medias Precipitaciones Rachas de viento máximas Velocidades máximas media en intervalos de 10 minutos

Datos horarios

Fecha y hora oficial Temperatura (ºC) Velocidad del viento (km/h) Dirección del viento Racha (km/h) Dirección de racha Precipitación (mm) Presión (hPa) Tendencia (hPa) Humedad (%)
2019-04-19 23:00:00 8.6 19 Sudeste 36 Este 0 -- -- 55
2019-04-19 22:00:00 8.3 8 Sudeste 28 Este 0 -- -- 58
2019-04-19 21:00:00 8.8 16 Sudeste 46 Este 0 -- -- 59
2019-04-19 20:00:00 9.2 14 Sudeste 39 Sudeste 0 -- -- 60
2019-04-19 19:00:00 10.3 15 Sudeste 45 Este 0 -- -- 61
2019-04-19 18:00:00 8.7 13 Sudeste 41 Este 0 -- -- 72
2019-04-19 17:00:00 9.3 14 Sudeste 44 Sur 0 -- -- 74
2019-04-19 16:00:00 10.6 21 Sudeste 57 Sudeste 0 -- -- 73
2019-04-19 15:00:00 7.3 15 Sudeste 45 Este 0 -- -- 98
2019-04-19 14:00:00 5.2 32 Este 50 Sudeste 0 -- -- 98
2019-04-19 13:00:00 5.2 20 Sudeste 48 Sudeste 0 -- -- 99
2019-04-19 12:00:00 4.8 14 Sudeste 37 Este 0 -- -- 99
2019-04-19 11:00:00 4.1 12 Sur 38 Sur 0 -- -- 99
2019-04-19 10:00:00 3.3 18 Sudeste 47 Este 0.2 -- -- 99
2019-04-19 09:00:00 3.2 19 Sudeste 49 Este 0.6 -- -- 99
2019-04-19 08:00:00 3.3 18 Sudeste 43 Sur 0 -- -- 99
2019-04-19 07:00:00 3.3 16 Sudeste 45 Este 1.4 -- -- 99
2019-04-19 06:00:00 3.3 18 Sudeste 48 Sudeste 3 -- -- 99
2019-04-19 05:00:00 3.3 21 Sudeste 60 Este 3.6 -- -- 98
2019-04-19 04:00:00 3.5 30 Sudeste 69 Este 0.8 -- -- 98
2019-04-19 03:00:00 3.7 27 Sudeste 45 Sudeste 2.8 -- -- 98
2019-04-19 02:00:00 3.5 22 Este 39 Este 2.4 -- -- 98
2019-04-19 01:00:00 2.9 21 Este 51 Este 2 -- -- 98
2019-04-19 00:00:00 3 25 Sudeste 51 Este 1.8 -- -- 98
2019-04-18 23:00:00 3 25 Sudeste 44 Este 0.4 -- -- 98
2019-04-18 22:00:00 3.3 17 Este 45 Este 1.4 -- -- 98
2019-04-18 21:00:00 3.5 20 Sudeste 44 Este 1.4 -- -- 98
2019-04-18 20:00:00 3.5 23 Este 33 Este 1.2 -- -- 98
2019-04-18 19:00:00 3.9 12 Sudeste 21 Este 0.8 -- -- 98
2019-04-18 18:00:00 3.8 16 Este 21 Este 0.6 -- -- 98
2019-04-18 17:00:00 3.4 15 Este 31 Este 0.4 -- -- 98
2019-04-18 16:00:00 3.7 13 Sudeste 28 Este 0.2 -- -- 97
2019-04-18 15:00:00 4.7 8 Sudeste 18 Este 1.6 -- -- 98
2019-04-18 14:00:00 4.3 3 Sur 18 Sur 0.6 -- -- 97
2019-04-18 13:00:00 4.5 6 Sur 18 Sudeste 1.2 -- -- 97
2019-04-18 12:00:00 4.1 9 Este 13 Sudeste 0 -- -- 98
2019-04-18 11:00:00 3.6 3 Este 11 Este 0 -- -- 98
2019-04-18 10:00:00 3.1 7 Sudoeste 15 Sudoeste 0 -- -- 98
2019-04-18 09:00:00 3 8 Sudoeste 18 Sudoeste 0 -- -- 98
2019-04-18 08:00:00 3 10 Oeste 26 Sudoeste 0 -- -- 98
2019-04-18 07:00:00 3 13 Oeste 25 Oeste 0.8 -- -- 98
2019-04-18 06:00:00 3.2 15 Oeste 26 Oeste 0.6 -- -- 97
2019-04-18 05:00:00 3.5 13 Oeste 27 Sudoeste 1.8 -- -- 97
2019-04-18 04:00:00 4 9 Sudoeste 59 Oeste 1.8 -- -- 96
2019-04-18 03:00:00 4.6 21 Oeste 41 Oeste 2 -- -- 96
2019-04-18 02:00:00 6.1 21 Oeste 61 Sudoeste 0.4 -- -- 94
2019-04-18 01:00:00 7.3 30 Sudoeste 57 Sudoeste 0 -- -- 88
2019-04-18 00:00:00 7.8 21 Sudoeste 46 Sur 0 -- -- 86
2019-04-17 23:00:00 7.8 17 Sudoeste 49 Sudoeste 0.4 -- -- 84
2019-04-17 22:00:00 7.6 14 Sudoeste 51 Sudoeste 0.4 -- -- 86
2019-04-17 21:00:00 10.2 35 Sudoeste 76 Sudoeste 0 -- -- 63
2019-04-17 20:00:00 10.5 27 Sudoeste 49 Sudoeste 0 -- -- 61
2019-04-17 19:00:00 10.5 21 Sudoeste 49 Sudoeste 0 -- -- 64
2019-04-17 18:00:00 10.6 24 Sur 37 Sur 0 -- -- 59
2019-04-17 17:00:00 9.5 20 Sudoeste 45 Sudoeste 0 -- -- 62
2019-04-17 16:00:00 9.6 17 Oeste 42 Sudoeste 0 -- -- 66
2019-04-17 15:00:00 10.5 25 Oeste 51 Oeste 0 -- -- 69
2019-04-17 14:00:00 11.3 27 Oeste 58 Oeste 0 -- -- 62
2019-04-17 13:00:00 9.7 23 Oeste 48 Sudoeste 0 -- -- 72
2019-04-17 12:00:00 9.1 23 Sudoeste 47 Sudoeste 0 -- -- 74
2019-04-17 11:00:00 7.7 17 Sudoeste 37 Sudoeste 0 -- -- 81
2019-04-17 10:00:00 5.5 19 Sudoeste 32 Sudoeste 0 -- -- 86
2019-04-17 09:00:00 5.2 13 Sudoeste 30 Sudoeste 0 -- -- 87
2019-04-17 08:00:00 4.5 7 Sudeste 21 Sudeste 0 -- -- 88
2019-04-17 07:00:00 4.8 10 Sur 28 Sur 0 -- -- 84
2019-04-17 06:00:00 5.3 12 Sudeste 30 Sur 0 -- -- 77
2019-04-17 05:00:00 5.7 10 Sur 26 Sur 0 -- -- 74
2019-04-17 04:00:00 5.9 14 Sur 23 Sur 0 -- -- 72
2019-04-17 03:00:00 8.1 6 Sudoeste 31 Sudoeste 0 -- -- 59
2019-04-17 02:00:00 7.9 11 Sur 18 Sur 0 -- -- 64
2019-04-17 01:00:00 7.5 6 Este 15 Nordeste 0 -- -- 58
2019-04-17 00:00:00 7.9 4 Nordeste 12 Oeste 0 -- -- 58
2019-04-16 23:00:00 8.2 5 Sur 11 Sur 0 -- -- 57
2019-04-16 22:00:00 7.7 3 Este 12 Sudoeste 0 -- -- 52
2019-04-16 21:00:00 7.5 9 Sudoeste 21 Sudoeste 0 -- -- 56
2019-04-16 20:00:00 9.6 10 Sudoeste 31 Oeste 0 -- -- 51
2019-04-16 19:00:00 11.3 16 Oeste 39 Oeste 0 -- -- 46
2019-04-16 18:00:00 12.2 18 Oeste 35 Oeste 0 -- -- 43
2019-04-16 17:00:00 12.3 19 Sudoeste 30 Sudoeste 0 -- -- 46
2019-04-16 16:00:00 11 19 Sudoeste 35 Sur 0 -- -- 49
2019-04-16 15:00:00 11.1 18 Sudoeste 33 Sudoeste 0 -- -- 51
2019-04-16 14:00:00 10.7 12 Oeste 26 Sudoeste 0 -- -- 54
2019-04-16 13:00:00 9.2 6 Noroeste 18 Sudoeste 0 -- -- 63
2019-04-16 12:00:00 8.6 7 Oeste 23 Sudoeste 0 -- -- 64
2019-04-16 11:00:00 8.4 4 Sudoeste 9 Sudoeste 0 -- -- 69
2019-04-16 10:00:00 2.7 3 Sudoeste 8 Sudoeste 0 -- -- 88
2019-04-16 09:00:00 2.5 3 Sudoeste 12 Sudoeste 0 -- -- 94
2019-04-16 08:00:00 1.9 4 Sudoeste 8 Sudoeste 0 -- -- 97
2019-04-16 07:00:00 1.7 3 Sur 6 Sur 0 -- -- 98
2019-04-16 06:00:00 1.8 3 Oeste 8 Sudeste 0 -- -- 97
2019-04-16 05:00:00 2.1 4 Este 6 Este 0 -- -- 96
2019-04-16 04:00:00 2.5 0 Calma 6 Sudoeste 0 -- -- 93
2019-04-16 03:00:00 2.5 4 Oeste 8 Noroeste 0 -- -- 90
2019-04-16 02:00:00 2.8 3 Oeste 7 Oeste 0 -- -- 88
2019-04-16 01:00:00 2.7 3 Noroeste 11 Noroeste 0 -- -- 89
2019-04-16 00:00:00 3 4 Oeste 17 Oeste 0 -- -- 90
2019-04-15 23:00:00 3.7 15 Oeste 21 Noroeste 0 -- -- 92
2019-04-15 22:00:00 5.2 15 Oeste 23 Oeste 0 -- -- 81
2019-04-15 21:00:00 5.8 13 Oeste 35 Oeste 0 -- -- 77
2019-04-15 20:00:00 8.2 23 Oeste 41 Oeste 0 -- -- 68
2019-04-15 19:00:00 7.7 27 Oeste 55 Oeste 0 -- -- 77
2019-04-15 18:00:00 10.4 34 Oeste 67 Oeste 0 -- -- 68
2019-04-15 17:00:00 10.3 35 Oeste 67 Oeste 0 -- -- 74
2019-04-15 16:00:00 9.9 42 Oeste 67 Oeste 0.2 -- -- 85
2019-04-15 15:00:00 8.6 37 Oeste 72 Oeste 5 -- -- 96
2019-04-15 14:00:00 9.3 40 Oeste 77 Sudoeste 2.2 -- -- 91
2019-04-15 13:00:00 8.7 41 Oeste 67 Oeste 5 -- -- 92
2019-04-15 12:00:00 10.6 42 Oeste 68 Oeste 0 -- -- 80
2019-04-15 11:00:00 10.2 29 Oeste 53 Oeste 0 -- -- 83
2019-04-15 10:00:00 9.9 15 Sudoeste 35 Oeste 0 -- -- 86
2019-04-15 09:00:00 8.9 14 Sudoeste 26 Sudoeste 0 -- -- 89
2019-04-15 08:00:00 8.7 9 Sudoeste 22 Sudoeste 0 -- -- 88
2019-04-15 07:00:00 8.5 12 Oeste 24 Oeste 0 -- -- 87
2019-04-15 06:00:00 8.4 12 Oeste 20 Oeste 0 -- -- 84
2019-04-15 05:00:00 8.7 12 Oeste 22 Oeste 0 -- -- 81
2019-04-15 04:00:00 9.3 15 Oeste 24 Oeste 0 -- -- 76
2019-04-15 03:00:00 9.4 14 Oeste 27 Oeste 0 -- -- 77
2019-04-15 02:00:00 9.7 12 Oeste 22 Oeste 0 -- -- 77
2019-04-15 01:00:00 9.3 15 Oeste 24 Noroeste 0 -- -- 83
2019-04-15 00:00:00 9.9 13 Sudoeste 26 Oeste 0 -- -- 80
2019-04-14 23:00:00 10 14 Sudoeste 26 Sudoeste 0 -- -- 80
2019-04-14 22:00:00 10.3 16 Sudoeste 26 Sudoeste 0 -- -- 80
2019-04-14 21:00:00 10.6 15 Sudoeste 32 Sudoeste 0 -- -- 78
2019-04-14 20:00:00 11.5 21 Sudoeste 31 Sudoeste 0 -- -- 74
2019-04-14 19:00:00 11.6 21 Sudoeste 30 Sudoeste 0 -- -- 74
2019-04-14 18:00:00 13.3 19 Sudoeste 32 Sudoeste 0 -- -- 67
2019-04-14 17:00:00 13.7 9 Sur 23 Sur 0 -- -- 63
2019-04-14 16:00:00 15.7 6 Oeste 26 Oeste 0 -- -- 55
2019-04-14 15:00:00 16.9 10 Sudoeste 27 Oeste 0 -- -- 51
2019-04-14 14:00:00 14.4 9 Oeste 19 Oeste 0 -- -- 57
2019-04-14 13:00:00 14.2 7 Oeste 18 Sur 0 -- -- 57
2019-04-14 12:00:00 14.8 5 Sudeste 13 Este 0 -- -- 58
2019-04-14 11:00:00 13.2 2 Oeste 14 Oeste 0 -- -- 60
2019-04-14 10:00:00 10.4 4 Oeste 11 Oeste 0 -- -- 69
2019-04-14 09:00:00 7.8 10 Noroeste 18 Noroeste 0 -- -- 76
2019-04-14 08:00:00 6.1 12 Oeste 17 Oeste 0 -- -- 80
2019-04-14 07:00:00 7.4 9 Oeste 15 Noroeste 0 -- -- 73
2019-04-14 06:00:00 7.3 10 Oeste 17 Noroeste 0 -- -- 73
2019-04-14 05:00:00 7.9 14 Noroeste 17 Noroeste 0 -- -- 69
2019-04-14 04:00:00 8.1 5 Oeste 13 Oeste 0 -- -- 69
2019-04-14 03:00:00 7.7 12 Noroeste 14 Oeste 0 -- -- 68
2019-04-14 02:00:00 8.5 6 Oeste 9 Oeste 0 -- -- 63
2019-04-14 01:00:00 9.4 3 Noroeste 10 Oeste 0 -- -- 58
2019-04-14 00:00:00 9.6 9 Oeste 11 Oeste 0 -- -- 57
2019-04-13 23:00:00 9.8 10 Oeste 13 Oeste 0 -- -- 56
2019-04-13 22:00:00 9.6 9 Oeste 25 Oeste 0 -- -- 57
2019-04-13 21:00:00 10.2 20 Oeste 35 Oeste 0 -- -- 55
2019-04-13 20:00:00 10.9 19 Oeste 30 Oeste 0 -- -- 48
2019-04-13 19:00:00 12.1 21 Oeste 35 Oeste 0 -- -- 43
2019-04-13 18:00:00 14.2 22 Oeste 42 Oeste 0 -- -- 40
2019-04-13 17:00:00 13.7 26 Oeste 43 Oeste 0 -- -- 43
2019-04-13 16:00:00 14.5 19 Oeste 38 Oeste 0 -- -- 36
2019-04-13 15:00:00 13.5 21 Oeste 40 Oeste 0 -- -- 40
2019-04-13 14:00:00 13.2 18 Oeste 40 Oeste 0 -- -- 42
2019-04-13 13:00:00 12 16 Oeste 28 Oeste 0 -- -- 46
2019-04-13 12:00:00 10.9 13 Oeste 23 Oeste 0 -- -- 46
2019-04-13 11:00:00 9 9 Oeste 15 Oeste 0 -- -- 51
2019-04-13 10:00:00 6.6 10 Noroeste 15 Noroeste 0 -- -- 54
2019-04-13 09:00:00 6 10 Noroeste 14 Noroeste 0 -- -- 50
2019-04-13 08:00:00 3.9 12 Noroeste 14 Noroeste 0 -- -- 57
2019-04-13 07:00:00 3.6 12 Noroeste 18 Noroeste 0 -- -- 59
2019-04-13 06:00:00 2.9 10 Noroeste 13 Noroeste 0 -- -- 62
2019-04-13 05:00:00 3.1 10 Noroeste 14 Noroeste 0 -- -- 61
2019-04-13 04:00:00 2.8 8 Norte 12 Noroeste 0 -- -- 63
2019-04-13 03:00:00 3.7 3 Noroeste 4 Oeste 0 -- -- 59
2019-04-13 02:00:00 3.5 3 Oeste 5 Oeste 0 -- -- 61
2019-04-13 01:00:00 4.2 0 Calma 2 Este 0 -- -- 62
2019-04-13 00:00:00 4.6 0 Calma 4 Sudeste 0 -- -- 61
2019-04-12 23:00:00 4.9 0 Calma 5 Este 0 -- -- 54
2019-04-12 22:00:00 5 3 Este 15 Sur 0 -- -- 63
2019-04-12 21:00:00 6.3 4 Este 18 Sudoeste 0 -- -- 50
2019-04-12 20:00:00 9.6 11 Sudoeste 23 Sudoeste 0 -- -- 37
2019-04-12 19:00:00 11.8 13 Sudoeste 22 Sudoeste 0 -- -- 35
2019-04-12 18:00:00 13.3 10 Oeste 23 Oeste 0 -- -- 28
2019-04-12 17:00:00 13.8 6 Oeste 18 Sudoeste 0 -- -- 33
2019-04-12 16:00:00 12.7 4 Sur 20 Este 0 -- -- 34
2019-04-12 15:00:00 10.9 9 Este 24 Este 0 -- -- 29
2019-04-12 14:00:00 9.6 9 Sudeste 23 Este 0 -- -- 27
2019-04-12 13:00:00 9.8 5 Sur 12 Sudoeste 0 -- -- 39
2019-04-12 12:00:00 7.2 8 Sudoeste 14 Oeste 0 -- -- 50
2019-04-12 11:00:00 6.5 2 Oeste 8 Este 0 -- -- 53
2019-04-12 10:00:00 5 3 Sudeste 7 Sur 0 -- -- 60
2019-04-12 09:00:00 1.9 3 Este 5 Este 0 -- -- 70
2019-04-12 08:00:00 -1.3 2 Sudeste 4 Este 0 -- -- 89
2019-04-12 07:00:00 -1.3 0 Calma 6 Noroeste 0 -- -- 90
2019-04-12 06:00:00 -1.4 0 Calma 4 Oeste 0 -- -- 90
2019-04-12 05:00:00 -1.6 0 Calma 3 Oeste 0 -- -- 95
2019-04-12 04:00:00 -1.4 0 Calma 3 Nordeste 0 -- -- 95
2019-04-12 03:00:00 -1.6 2 Nordeste 4 Noroeste 0 -- -- 94
2019-04-12 02:00:00 -0.9 3 Noroeste 6 Noroeste 0 -- -- 93
2019-04-12 01:00:00 -0.3 4 Oeste 5 Oeste 0 -- -- 91
2019-04-12 00:00:00 -0.3 3 Noroeste 10 Oeste 0 -- -- 89
2019-04-11 23:00:00 0 10 Oeste 18 Noroeste 0 -- -- 90
2019-04-11 22:00:00 0.7 13 Oeste 23 Noroeste 0 -- -- 87
2019-04-11 21:00:00 1.3 16 Oeste 27 Noroeste 0 -- -- 87
2019-04-11 20:00:00 4.8 13 Oeste 26 Noroeste 0 -- -- 74
2019-04-11 19:00:00 6.1 8 Noroeste 20 Noroeste 0 -- -- 61
2019-04-11 18:00:00 6.9 6 Norte 22 Noroeste 0 -- -- 57
2019-04-11 17:00:00 6.4 10 Este 19 Este 0 -- -- 61
2019-04-11 16:00:00 6.3 9 Oeste 19 Sudoeste 0 -- -- 65
2019-04-11 15:00:00 6.7 4 Sudoeste 19 Oeste 0 -- -- 52
2019-04-11 14:00:00 5.4 5 Nordeste 20 Oeste 0 -- -- 58
2019-04-11 13:00:00 5 3 Noroeste 12 Sudoeste 0 -- -- 60
2019-04-11 12:00:00 5.9 4 Oeste 13 Sudoeste 0 -- -- 54
2019-04-11 11:00:00 3.9 6 Oeste 13 Oeste 0 -- -- 60
2019-04-11 10:00:00 2.4 8 Oeste 15 Noroeste 0 -- -- 69
2019-04-11 09:00:00 -0.7 10 Oeste 16 Oeste 0 -- -- 83
2019-04-11 08:00:00 -0.3 11 Noroeste 21 Norte 0 -- -- 76
2019-04-11 07:00:00 -1.3 12 Oeste 17 Oeste 0 -- -- 85
2019-04-11 06:00:00 -1.1 8 Noroeste 14 Oeste 0 -- -- 81
2019-04-11 05:00:00 -0.9 9 Oeste 13 Oeste 0 -- -- 83
2019-04-11 04:00:00 -0.9 6 Oeste 11 Oeste 0 -- -- 84
2019-04-11 03:00:00 -0.8 9 Oeste 15 Norte 0 -- -- 87
2019-04-11 02:00:00 0.1 10 Norte 17 Norte 0 -- -- 78
2019-04-11 01:00:00 0.2 5 Oeste 15 Norte 0 -- -- 79
2019-04-11 00:00:00 -0.2 6 Oeste 13 Oeste 0 -- -- 85
2019-04-10 23:00:00 0.2 3 Noroeste 18 Norte 0 -- -- 82
2019-04-10 22:00:00 0.4 5 Norte 18 Nordeste 0 -- -- 79
2019-04-10 21:00:00 0.5 14 Este 21 Este 0 -- -- 89
2019-04-10 20:00:00 3.3 10 Este 19 Este 0 -- -- 72
2019-04-10 19:00:00 4 7 Este 30 Este 0 -- -- 79
2019-04-10 18:00:00 4 20 Este 28 Nordeste 0 -- -- 73
2019-04-10 17:00:00 6.2 4 Sudeste 13 Sudeste 0 -- -- 80
2019-04-10 16:00:00 5.2 3 Sudoeste 14 Sudoeste 0 -- -- 84
2019-04-10 15:00:00 5.3 6 Oeste 16 Sudoeste 0 -- -- 81
2019-04-10 14:00:00 3.5 5 Oeste 13 Oeste 1.2 -- -- 86
2019-04-10 13:00:00 2.5 0 Calma 5 Noroeste 1.4 -- -- 85
2019-04-10 12:00:00 4.1 0 Calma 5 Este 1.4 -- -- 82
2019-04-10 11:00:00 0.2 0 Calma 4 Este 0.2 -- -- 97
2019-04-10 10:00:00 -1.1 2 Este 4 Este 0 -- -- 97
2019-04-10 09:00:00 -0.6 0 Calma 10 Noroeste 0 -- -- 97
2019-04-10 08:00:00 -1.7 5 Oeste 9 Sudoeste 0 -- -- 97
2019-04-10 07:00:00 -1.8 6 Oeste 12 Oeste 0 -- -- 97
2019-04-10 06:00:00 -1.6 9 Oeste 13 Noroeste 0 -- -- 94
2019-04-10 05:00:00 -1 10 Oeste 15 Noroeste 0 -- -- 86
2019-04-10 04:00:00 -0.7 13 Noroeste 17 Oeste 0 -- -- 84
2019-04-10 03:00:00 -1 9 Oeste 14 Oeste 0 -- -- 96
2019-04-10 02:00:00 -1.1 6 Oeste 24 Norte 0 -- -- 97
2019-04-10 01:00:00 -0.1 8 Noroeste 10 Noroeste 0 -- -- 96
2019-04-10 00:00:00 0.4 10 Noroeste 17 Oeste 0 -- -- 94
2019-04-09 23:00:00 0.6 11 Oeste 18 Oeste 0 -- -- 91
2019-04-09 22:00:00 0.9 9 Oeste 26 Oeste 0 -- -- 89
2019-04-09 21:00:00 1.8 20 Oeste 35 Oeste 0 -- -- 86
2019-04-09 20:00:00 3.1 8 Oeste 24 Oeste 0.2 -- -- 86
2019-04-09 19:00:00 1.9 8 Oeste 19 Oeste 0 -- -- 87
2019-04-09 18:00:00 0.9 13 Oeste 41 Oeste 0 -- -- 90
2019-04-09 17:00:00 2.7 20 Oeste 35 Oeste 0 -- -- 83
2019-04-09 16:00:00 4.2 17 Oeste 30 Oeste 0 -- -- 82
2019-04-09 15:00:00 3.4 18 Oeste 28 Oeste 0 -- -- 96
2019-04-09 14:00:00 1.1 12 Oeste 22 Oeste 0 -- -- 98
2019-04-09 13:00:00 1.4 14 Oeste 21 Oeste 0.6 -- -- 97
2019-04-09 12:00:00 0.3 13 Noroeste 21 Noroeste 1.2 -- -- 98
2019-04-09 11:00:00 0.3 0 Calma 4 Noroeste 0.4 -- -- 97
2019-04-09 10:00:00 -0.2 0 Calma -- -- 0 -- -- 98
2019-04-09 09:00:00 -0.7 0 Calma -- -- 0 -- -- 98
2019-04-09 08:00:00 -0.9 0 Calma -- -- 0 -- -- 98
2019-04-09 07:00:00 -0.7 0 Calma 28 Oeste 0 -- -- 98
2019-04-09 06:00:00 -0.5 19 Oeste 40 Oeste 0 -- -- 97
2019-04-09 05:00:00 -0.6 19 Oeste 31 Oeste 0 -- -- 97
2019-04-09 04:00:00 -0.5 24 Oeste 39 Oeste 0 -- -- 95
2019-04-09 03:00:00 -0.6 24 Oeste 42 Oeste 0 -- -- 91
2019-04-09 02:00:00 -0.1 20 Oeste 33 Oeste 0 -- -- 94
2019-04-09 01:00:00 0.2 19 Oeste 34 Oeste 0 -- -- 93
2019-04-09 00:00:00 0.2 17 Oeste 30 Oeste 0 -- -- 90
2019-04-08 23:00:00 1 22 Oeste 31 Oeste 0 -- -- 84
2019-04-08 22:00:00 1.1 16 Oeste 29 Oeste 0 -- -- 86
2019-04-08 21:00:00 0.8 5 Sudoeste 26 Noroeste 0 -- -- 90
2019-04-08 20:00:00 1.7 2 Norte 32 Oeste 0.2 -- -- 82
2019-04-08 19:00:00 3.3 23 Oeste 43 Oeste 0 -- -- 73
2019-04-08 18:00:00 5.9 22 Oeste 39 Oeste 0 -- -- 62
2019-04-08 17:00:00 5.3 27 Oeste 45 Oeste 0 -- -- 62
2019-04-08 16:00:00 6.8 25 Oeste 49 Oeste 0 -- -- 51
2019-04-08 15:00:00 7.1 26 Oeste 47 Oeste 0 -- -- 61
2019-04-08 14:00:00 5.6 28 Oeste 45 Oeste 0 -- -- 62
2019-04-08 13:00:00 5.5 24 Oeste 37 Sudoeste 0 -- -- 75
2019-04-08 12:00:00 3.4 13 Oeste 25 Oeste 0 -- -- 94
2019-04-08 11:00:00 4.4 14 Oeste 28 Oeste 0.6 -- -- 93
2019-04-08 10:00:00 2.5 9 Oeste 15 Noroeste 1.4 -- -- 96
2019-04-08 09:00:00 1 5 Oeste 15 Noroeste 0.6 -- -- 98
2019-04-08 08:00:00 0.8 8 Oeste 21 Oeste 1 -- -- 99
2019-04-08 07:00:00 1.3 10 Oeste 23 Oeste 1.8 -- -- 98
2019-04-08 06:00:00 1.3 20 Oeste 30 Oeste 0 -- -- 98
2019-04-08 05:00:00 1.2 19 Oeste 27 Oeste 0 -- -- 98
2019-04-08 04:00:00 0 13 Oeste 17 Oeste 0 -- -- 98
2019-04-08 03:00:00 -0.2 8 Oeste 11 Oeste 0 -- -- 98
2019-04-08 02:00:00 -0.4 7 Oeste 12 Oeste 0 -- -- 98
2019-04-08 01:00:00 -1 4 Oeste 10 Noroeste 0 -- -- 98
2019-04-08 00:00:00 -1.1 4 Noroeste 19 Oeste 0 -- -- 98
2019-04-07 23:00:00 -1.2 15 Oeste 28 Noroeste 0 -- -- 97
2019-04-07 22:00:00 -0.9 8 Noroeste 20 Noroeste 0 -- -- 97
2019-04-07 21:00:00 -0.5 13 Oeste 36 Oeste 0 -- -- 96
2019-04-07 20:00:00 0.5 23 Oeste 39 Sudoeste 0.2 -- -- 94
2019-04-07 19:00:00 2.7 19 Oeste 46 Oeste 0 -- -- 71
2019-04-07 18:00:00 4.2 30 Oeste 50 Oeste 0 -- -- 58
2019-04-07 17:00:00 6 24 Sudoeste 49 Oeste 0 -- -- 50
2019-04-07 16:00:00 6.2 28 Oeste 45 Oeste 0 -- -- 46
2019-04-07 15:00:00 5.1 18 Oeste 39 Oeste 0 -- -- 60
2019-04-07 14:00:00 2.7 22 Oeste 32 Oeste 0 -- -- 67
2019-04-07 13:00:00 4.7 13 Oeste 22 Oeste 0 -- -- 64
2019-04-07 12:00:00 2.9 13 Oeste 28 Oeste 0 -- -- 74
2019-04-07 11:00:00 1.2 12 Noroeste 26 Oeste 0.8 -- -- 82
2019-04-07 10:00:00 0.6 9 Oeste 19 Oeste 0 -- -- 82
2019-04-07 09:00:00 -1.6 10 Oeste 21 Noroeste 0 -- -- 89
2019-04-07 08:00:00 -2.6 18 Noroeste 33 Noroeste 0 -- -- 93
2019-04-07 07:00:00 -2.7 21 Noroeste 38 Noroeste 0 -- -- 93
2019-04-07 06:00:00 -3.1 23 Oeste 32 Oeste 0 -- -- 94
2019-04-07 05:00:00 -3 21 Oeste 30 Oeste 0 -- -- 93
2019-04-07 04:00:00 -3 21 Noroeste 30 Noroeste 0.2 -- -- 93
2019-04-07 03:00:00 -3.1 24 Noroeste 33 Noroeste 0 -- -- 94
2019-04-07 02:00:00 -3.3 25 Noroeste 35 Noroeste 0 -- -- 97
2019-04-07 01:00:00 -2 23 Noroeste 31 Noroeste 0 -- -- 98
2019-04-07 00:00:00 -1.8 12 Oeste 18 Oeste 0 -- -- 98
2019-04-06 23:00:00 -1.9 14 Oeste 36 Noroeste 0 -- -- 98
2019-04-06 22:00:00 -1.9 23 Noroeste 32 Noroeste 0 -- -- 98
2019-04-06 21:00:00 -1.6 13 Oeste 21 Oeste 0 -- -- 98
2019-04-06 20:00:00 -0.6 10 Oeste 23 Noroeste 0.2 -- -- 97
2019-04-06 19:00:00 -1.1 8 Oeste 39 Noroeste 0 -- -- 96
2019-04-06 18:00:00 -0.7 20 Oeste 32 Oeste 0 -- -- 94
2019-04-06 17:00:00 3.2 10 Oeste 23 Noroeste 0.4 -- -- 90
2019-04-06 16:00:00 -0.9 20 Oeste 33 Oeste 0 -- -- 95
2019-04-06 15:00:00 1.1 19 Oeste 33 Oeste 0 -- -- 95
2019-04-06 14:00:00 -0.3 13 Oeste 26 Oeste 0.8 -- -- 95
2019-04-06 13:00:00 -1.1 12 Oeste 28 Oeste 0.2 -- -- 96
2019-04-06 12:00:00 -2.1 21 Oeste 34 Oeste 0 -- -- 97
2019-04-06 11:00:00 -2 14 Oeste 39 Oeste 0 -- -- 96
2019-04-06 10:00:00 -2.3 20 Oeste 39 Sudoeste 0 -- -- 97
2019-04-06 09:00:00 -2.8 11 Oeste 26 Oeste 0 -- -- 96
2019-04-06 08:00:00 -3.1 10 Oeste 18 Oeste 0 -- -- 96
2019-04-06 07:00:00 -3.3 12 Oeste 21 Oeste 0 -- -- 96
2019-04-06 06:00:00 -3.3 12 Oeste 24 Oeste 0 -- -- 96
2019-04-06 05:00:00 -3.1 13 Oeste 20 Oeste 0 -- -- 96
2019-04-06 04:00:00 -3.2 9 Oeste 16 Oeste 0 -- -- 97
2019-04-06 03:00:00 -3 9 Noroeste 15 Oeste 0 -- -- 97
2019-04-06 02:00:00 -2.6 9 Noroeste 21 Oeste 0 -- -- 97
2019-04-06 01:00:00 -2.6 9 Oeste 19 Oeste 0 -- -- 96
2019-04-06 00:00:00 -2.5 4 Oeste 16 Noroeste 0 -- -- 94
2019-04-05 23:00:00 -2 13 Oeste 23 Oeste 0 -- -- 90
2019-04-05 22:00:00 -0.9 17 Oeste 24 Oeste 0 -- -- 83
2019-04-05 21:00:00 -0.5 12 Oeste 19 Oeste 0 -- -- 80
2019-04-05 20:00:00 2 9 Oeste 31 Oeste 0 -- -- 71
2019-04-05 19:00:00 1.2 14 Oeste 33 Oeste 0 -- -- 75
2019-04-05 18:00:00 2.5 19 Oeste 30 Oeste 0.8 -- -- 73
2019-04-05 17:00:00 1.7 18 Oeste 30 Oeste 1.4 -- -- 75
2019-04-05 16:00:00 0.5 15 Oeste 35 Oeste 1.2 -- -- 87
2019-04-05 15:00:00 -0.1 21 Oeste 34 Oeste 1.2 -- -- 90
2019-04-05 14:00:00 -0.9 21 Oeste 32 Oeste 2.2 -- -- 94
2019-04-05 13:00:00 2.2 12 Oeste 30 Oeste 2.6 -- -- 87
2019-04-05 12:00:00 0.2 5 Oeste 18 Oeste 0.6 -- -- 94
2019-04-05 11:00:00 -0.6 6 Oeste 23 Oeste 0 -- -- 95
2019-04-05 10:00:00 -1.6 11 Oeste 26 Oeste 0 -- -- 96
2019-04-05 09:00:00 -1.4 7 Oeste 27 Oeste 0 -- -- 97
2019-04-05 08:00:00 -1.5 21 Oeste 35 Sudoeste 0 -- -- 97
2019-04-05 07:00:00 -1.6 20 Oeste 30 Oeste 0 -- -- 97
2019-04-05 06:00:00 -1.8 18 Sudoeste 26 Sudoeste 0 -- -- 97
2019-04-05 05:00:00 -2 14 Sudoeste 23 Sudoeste 0 -- -- 97
2019-04-05 04:00:00 -2 14 Sudoeste 23 Oeste 0 -- -- 97
2019-04-05 03:00:00 -2.1 10 Oeste 26 Sudoeste 0 -- -- 97
2019-04-05 02:00:00 -2.2 14 Sudoeste 27 Sudoeste 0 -- -- 97
2019-04-05 01:00:00 -2.1 12 Sudoeste 21 Sudoeste 0 -- -- 97
2019-04-05 00:00:00 -1.8 9 Oeste 23 Oeste 0 -- -- 97
2019-04-04 23:00:00 -1.8 11 Oeste 22 Oeste 0 -- -- 96
2019-04-04 22:00:00 -1.8 12 Oeste 26 Oeste 0 -- -- 96
2019-04-04 21:00:00 -1.8 17 Oeste 46 Oeste 0 -- -- 95
2019-04-04 20:00:00 -1.3 19 Oeste 34 Oeste 0 -- -- 94
2019-04-04 19:00:00 0 22 Oeste 50 Oeste 0 -- -- 73
2019-04-04 18:00:00 1.7 27 Oeste 45 Oeste 0 -- -- 62
2019-04-04 17:00:00 1.9 29 Oeste 49 Oeste 0 -- -- 62
2019-04-04 16:00:00 1.8 28 Oeste 57 Oeste 0 -- -- 60
2019-04-04 15:00:00 1.2 36 Oeste 51 Oeste 0 -- -- 63
2019-04-04 14:00:00 -0.2 31 Oeste 49 Oeste 0 -- -- 73
2019-04-04 13:00:00 0.4 21 Oeste 33 Oeste 0.2 -- -- 70
2019-04-04 12:00:00 -0.6 15 Oeste 30 Sudoeste 0.4 -- -- 74
2019-04-04 11:00:00 -1.6 18 Oeste 35 Oeste 1 -- -- 80
2019-04-04 10:00:00 -3.2 18 Oeste 31 Oeste 0 -- -- 84
2019-04-04 09:00:00 -5.3 7 Oeste 19 Sudoeste 0 -- -- 90
2019-04-04 08:00:00 -5.8 10 Oeste 32 Noroeste 0 -- -- 92
2019-04-04 07:00:00 -5.7 14 Oeste 33 Oeste 0 -- -- 94
2019-04-04 06:00:00 -5.5 11 Oeste 20 Oeste 0 -- -- 94
2019-04-04 05:00:00 -5.7 14 Noroeste 28 Noroeste 0 -- -- 94
2019-04-04 04:00:00 -5.6 14 Noroeste 27 Oeste 0 -- -- 94
2019-04-04 03:00:00 -5.6 15 Oeste 24 Oeste 0 -- -- 94
2019-04-04 02:00:00 -6 21 Oeste 31 Noroeste 0 -- -- 92
2019-04-04 01:00:00 -5.4 14 Noroeste 28 Noroeste 0 -- -- 94
2019-04-04 00:00:00 -5.3 11 Oeste 36 Noroeste 0 -- -- 94
2019-04-03 23:00:00 -5.2 14 Noroeste 27 Noroeste 0 -- -- 94
2019-04-03 22:00:00 -4.6 17 Noroeste 35 Noroeste 0 -- -- 95
2019-04-03 21:00:00 -4.5 12 Noroeste 37 Noroeste 0 -- -- 94
2019-04-03 20:00:00 -4 17 Noroeste 33 Noroeste 0 -- -- 93
2019-04-03 19:00:00 -2.2 4 Noroeste 37 Norte 0 -- -- 92
2019-04-03 18:00:00 -2.4 22 Noroeste 43 Norte 0 -- -- 84
2019-04-03 17:00:00 1.3 18 Norte 46 Noroeste 0 -- -- 57
2019-04-03 16:00:00 1.7 13 Norte 44 Noroeste 0 -- -- 47
2019-04-03 15:00:00 0.1 17 Noroeste 48 Noroeste 0.2 -- -- 70
2019-04-03 14:00:00 -1 32 Noroeste 57 Noroeste 0.2 -- -- 73
2019-04-03 13:00:00 -2.4 17 Oeste 38 Oeste 0 -- -- 92
2019-04-03 12:00:00 -1.2 19 Oeste 32 Oeste 0 -- -- 92
2019-04-03 11:00:00 -1.5 14 Oeste 26 Oeste 0 -- -- 85
2019-04-03 10:00:00 -0.8 10 Oeste 31 Noroeste 0 -- -- 83
2019-04-03 09:00:00 -2.7 19 Oeste 31 Oeste 0 -- -- 94
2019-04-03 08:00:00 -2.6 18 Oeste 27 Oeste 0 -- -- 93
2019-04-03 07:00:00 -2.5 15 Oeste 30 Noroeste 0 -- -- 93
2019-04-03 06:00:00 -2.3 24 Noroeste 37 Oeste 0 -- -- 91
2019-04-03 05:00:00 -1.7 26 Noroeste 34 Noroeste 0 -- -- 94
2019-04-03 04:00:00 -1.3 19 Noroeste 28 Noroeste 0 -- -- 94
2019-04-03 03:00:00 -1.1 12 Oeste 27 Oeste 0 -- -- 92
2019-04-03 02:00:00 -0.6 10 Oeste 23 Oeste 0 -- -- 90
2019-04-03 01:00:00 0.1 17 Oeste 28 Oeste 0 -- -- 89
2019-04-03 00:00:00 0.7 16 Oeste 30 Oeste 0 -- -- 87
2019-04-02 23:00:00 1.3 22 Oeste 29 Noroeste 0 -- -- 86
2019-04-02 22:00:00 1.8 15 Noroeste 25 Noroeste 0 -- -- 88
2019-04-02 21:00:00 2.9 15 Noroeste 22 Noroeste 0 -- -- 82
2019-04-02 20:00:00 5.3 4 Noroeste 15 Noroeste 0 -- -- 71
2019-04-02 19:00:00 7.2 8 Este 23 Noroeste 0 -- -- 67
2019-04-02 18:00:00 7.7 16 Oeste 35 Oeste 0 -- -- 52
2019-04-02 17:00:00 10.4 9 Oeste 41 Oeste 0 -- -- 42
2019-04-02 16:00:00 8.5 16 Oeste 31 Oeste 0 -- -- 44
2019-04-02 15:00:00 12.4 18 Oeste 33 Oeste 0 -- -- 42
2019-04-02 14:00:00 11 10 Oeste 23 Oeste 0 -- -- 45
2019-04-02 13:00:00 8.7 11 Oeste 24 Sudoeste 0 -- -- 41
2019-04-02 12:00:00 8.9 7 Oeste 16 Oeste 0 -- -- 37
2019-04-02 11:00:00 7.5 3 Oeste 7 Sudoeste 0 -- -- 44
2019-04-02 10:00:00 5.4 2 Noroeste 4 Noroeste 0 -- -- 47
2019-04-02 09:00:00 2.5 0 Calma 2 Sudoeste 0 -- -- 60
2019-04-02 08:00:00 1.3 3 Norte 9 Noroeste 0 -- -- 64
2019-04-02 07:00:00 1.8 6 Oeste 8 Noroeste 0 -- -- 69
2019-04-02 06:00:00 1.9 2 Noroeste 4 Oeste 0 -- -- 73
2019-04-02 05:00:00 2.7 4 Oeste 5 Oeste 0 -- -- 70
2019-04-02 04:00:00 2.7 2 Norte 6 Norte 0 -- -- 70
2019-04-02 03:00:00 2.9 3 Norte 5 Norte 0 -- -- 71
2019-04-02 02:00:00 3.2 3 Oeste 5 Noroeste 0 -- -- 73
2019-04-02 01:00:00 3.4 0 Calma 6 Sudoeste 0 -- -- 71
2019-04-02 00:00:00 3.3 4 Norte 12 Noroeste 0 -- -- 72
2019-04-01 23:00:00 4.3 10 Oeste 17 Noroeste 0 -- -- 68
2019-04-01 22:00:00 4.8 12 Oeste 17 Oeste 0 -- -- 67
2019-04-01 21:00:00 5.7 6 Nordeste 22 Oeste 0 -- -- 70
2019-04-01 20:00:00 8.6 5 Oeste 17 Sudoeste 0 -- -- 57
2019-04-01 19:00:00 7.8 6 Sudoeste 19 Sudoeste 0 -- -- 59
2019-04-01 18:00:00 10.5 3 Sur 16 Sur 0 -- -- 51
2019-04-01 17:00:00 9.5 4 Sudoeste 24 Sudoeste 0 -- -- 54
2019-04-01 16:00:00 11.8 13 Sudoeste 28 Sudoeste 0 -- -- 44
2019-04-01 15:00:00 11.9 10 Sur 20 Oeste 0 -- -- 45
2019-04-01 14:00:00 12.5 9 Sudoeste 23 Oeste 0 -- -- 41
2019-04-01 13:00:00 9.9 5 Nordeste 23 Este 0 -- -- 40
2019-04-01 12:00:00 9.3 6 Sudeste 15 Este 0 -- -- 44
2019-04-01 11:00:00 7.3 4 Oeste 8 Oeste 0 -- -- 55
2019-04-01 10:00:00 4.3 5 Noroeste 10 Noroeste 0 -- -- 68
2019-04-01 09:00:00 1.1 7 Noroeste 10 Noroeste 0 -- -- 84
2019-04-01 08:00:00 0.7 3 Oeste 4 Oeste 0 -- -- 91
2019-04-01 07:00:00 0.9 4 Este 13 Este 0 -- -- 88
2019-04-01 06:00:00 0.6 13 Este 19 Este 0 -- -- 89
2019-04-01 05:00:00 0.5 15 Este 22 Este 0 -- -- 82
2019-04-01 04:00:00 0.6 18 Este 22 Este 0 -- -- 76
2019-04-01 03:00:00 2.2 9 Este 12 Este 0 -- -- 63
2019-04-01 02:00:00 2.4 5 Este 14 Este 0 -- -- 65
2019-04-01 01:00:00 3 10 Este 19 Sudeste 0 -- -- 64
2019-04-01 00:00:00 3.7 6 Sudeste 21 Sudeste 0 -- -- 62
2019-03-31 23:00:00 3.8 9 Sudeste 21 Este 0 -- -- 69
2019-03-31 22:00:00 4.6 5 Sudeste 22 Este 0 -- -- 67
2019-03-31 21:00:00 5 19 Este 31 Este 0 -- -- 67
2019-03-31 20:00:00 7 26 Este 34 Este 0 -- -- 60
2019-03-31 19:00:00 10 23 Este 40 Este 0 -- -- 43
2019-03-31 18:00:00 11.3 9 Sudeste 36 Este 0 -- -- 33
2019-03-31 17:00:00 10.9 16 Sudeste 30 Este 0 -- -- 35
2019-03-31 16:00:00 9.3 16 Este 36 Este 0 -- -- 43
2019-03-31 15:00:00 11.4 6 Sudeste 36 Este 0 -- -- 38
2019-03-31 14:00:00 9.8 17 Sudeste 35 Este 0 -- -- 39
2019-03-31 13:00:00 12.5 9 Sur 23 Sur 0 -- -- 35
2019-03-31 12:00:00 11.3 8 Sudeste 26 Este 0 -- -- 38
2019-03-31 11:00:00 9.3 5 Sudeste 12 Este 0 -- -- 42
2019-03-31 10:00:00 5.7 9 Este 13 Este 0 -- -- 50
2019-03-31 09:00:00 3.8 11 Este 17 Este 0 -- -- 59
2019-03-31 08:00:00 2.2 15 Este 19 Este 0 -- -- 62
2019-03-31 07:00:00 3.1 17 Este 19 Este 0 -- -- 59
2019-03-31 06:00:00 2.9 13 Este 18 Este 0 -- -- 66
2019-03-31 05:00:00 3 14 Este 20 Este 0 -- -- 66
2019-03-31 03:00:00 4 17 Este 27 Nordeste 0 -- -- 66
2019-03-31 01:00:00 4.5 14 Este 20 Este 0 -- -- 70
2019-03-31 00:00:00 5 7 Este 20 Este 0 -- -- 69
2019-03-30 23:00:00 4.8 11 Este 23 Sudeste 0 -- -- 72
2019-03-30 22:00:00 5.5 8 Este 12 Este 0 -- -- 67
2019-03-30 21:00:00 5.9 5 Nordeste 13 Noroeste 0 -- -- 63
2019-03-30 20:00:00 6.4 8 Oeste 14 Noroeste 0 -- -- 59
2019-03-30 19:00:00 7.3 4 Sudoeste 17 Norte 0 -- -- 57
2019-03-30 18:00:00 10.3 2 Sur 10 Este 0 -- -- 42
2019-03-30 17:00:00 10 3 Sudoeste 16 Oeste 0 -- -- 46
2019-03-30 16:00:00 7.1 12 Este 26 Norte 0 -- -- 57
2019-03-30 15:00:00 7.9 13 Norte 28 Sudoeste 0 -- -- 55
2019-03-30 14:00:00 8.9 17 Sudoeste 28 Sudoeste 0 -- -- 48
2019-03-30 13:00:00 10.1 14 Oeste 32 Oeste 0 -- -- 45
2019-03-30 12:00:00 10.9 13 Noroeste 26 Noroeste 0 -- -- 43
2019-03-30 11:00:00 10.4 6 Sudeste 12 Este 0 -- -- 41
2019-03-30 10:00:00 8 3 Sur 8 Sudeste 0 -- -- 51
2019-03-30 09:00:00 4.2 7 Sudeste 15 Sudeste 0 -- -- 60
2019-03-30 08:00:00 3 7 Sudeste 12 Sur 0 -- -- 58
2019-03-30 07:00:00 2.6 8 Sur 11 Sur 0 -- -- 58
2019-03-30 06:00:00 2.7 4 Sur 10 Sudoeste 0 -- -- 57
2019-03-30 05:00:00 2.9 6 Sudoeste 18 Oeste 0 -- -- 56
2019-03-30 04:00:00 3.6 10 Oeste 19 Sudoeste 0 -- -- 51
2019-03-30 03:00:00 4.3 10 Norte 16 Oeste 0 -- -- 49
2019-03-30 02:00:00 4.7 12 Oeste 24 Sudoeste 0 -- -- 53
2019-03-30 01:00:00 5.6 3 Oeste 8 Sudeste 0 -- -- 47
2019-03-30 00:00:00 6.5 3 Noroeste 10 Noroeste 0 -- -- 43
2019-03-29 23:00:00 6.8 5 Oeste 8 Noroeste 0 -- -- 42
2019-03-29 22:00:00 6.7 2 Oeste 15 Sudoeste 0 -- -- 43
2019-03-29 21:00:00 7.2 10 Sudoeste 31 Sudoeste 0 -- -- 42
2019-03-29 20:00:00 7.4 18 Sudoeste 31 Sudoeste 0 -- -- 43
2019-03-29 19:00:00 10.4 17 Oeste 31 Oeste 0 -- -- 37
2019-03-29 18:00:00 13.4 14 Oeste 33 Oeste 0 -- -- 30
2019-03-29 17:00:00 14 20 Oeste 41 Oeste 0 -- -- 29
2019-03-29 16:00:00 14 19 Oeste 45 Oeste 0 -- -- 30
2019-03-29 15:00:00 12.8 20 Oeste 42 Oeste 0 -- -- 34
2019-03-29 14:00:00 13.7 17 Sudoeste 37 Sudoeste 0 -- -- 36
2019-03-29 13:00:00 12.8 19 Sudoeste 33 Oeste 0 -- -- 39
2019-03-29 12:00:00 12.1 12 Oeste 29 Sudoeste 0 -- -- 37
2019-03-29 11:00:00 11.5 3 Sudoeste 17 Este 0 -- -- 38
2019-03-29 10:00:00 10.4 3 Sudoeste 8 Sudoeste 0 -- -- 39
2019-03-29 09:00:00 6.8 4 Este 8 Sudeste 0 -- -- 47
2019-03-29 08:00:00 3.4 3 Sur 9 Este 0 -- -- 49
2019-03-29 07:00:00 2.3 9 Este 11 Este 0 -- -- 47
2019-03-29 06:00:00 3.2 10 Este 13 Este 0 -- -- 47
2019-03-29 05:00:00 3 12 Este 20 Este 0 -- -- 50
2019-03-29 04:00:00 3.1 10 Este 20 Este 0 -- -- 50
2019-03-29 03:00:00 2 10 Este 23 Este 0 -- -- 54
2019-03-29 02:00:00 3.7 11 Sudeste 24 Este 0 -- -- 48
2019-03-29 01:00:00 4.3 9 Sudeste 26 Este 0 -- -- 46
2019-03-29 00:00:00 4.6 8 Sudeste 31 Este 0 -- -- 45
2019-03-28 23:00:00 4.9 6 Sudeste 23 Este 0 -- -- 44
2019-03-28 22:00:00 4.8 12 Sudeste 35 Este 0 -- -- 45
2019-03-28 21:00:00 5 29 Este 37 Este 0 -- -- 45
2019-03-28 20:00:00 5.9 26 Este 36 Este 0 -- -- 43
2019-03-28 19:00:00 8.2 26 Este 38 Este 0 -- -- 37
2019-03-28 18:00:00 9.7 26 Este 41 Este 0 -- -- 34
2019-03-28 17:00:00 10.9 31 Este 44 Este 0 -- -- 35
2019-03-28 16:00:00 11.6 32 Este 45 Este 0 -- -- 32
2019-03-28 15:00:00 14.1 15 Sudeste 44 Sudeste 0 -- -- 26
2019-03-28 14:00:00 13.8 15 Sudeste 43 Este 0 -- -- 24
2019-03-28 13:00:00 12.6 21 Sudeste 42 Este 0 -- -- 24
2019-03-28 12:00:00 12.6 15 Sudeste 44 Este 0 -- -- 22
2019-03-28 11:00:00 10.7 23 Este 47 Este 0 -- -- 24
2019-03-28 10:00:00 9 34 Este 48 Este 0 -- -- 25
2019-03-28 09:00:00 7.1 31 Este 44 Este 0 -- -- 28
2019-03-28 08:00:00 5 35 Este 46 Este 0 -- -- 31
2019-03-28 07:00:00 4.3 36 Este 53 Este 0 -- -- 37
2019-03-28 06:00:00 4.8 35 Este 50 Sudeste 0 -- -- 38
2019-03-28 05:00:00 4.8 31 Este 46 Este 0 -- -- 34
2019-03-28 04:00:00 5.2 34 Este 46 Este 0 -- -- 36
2019-03-28 03:00:00 4.3 16 Sudeste 35 Este 0 -- -- 31
2019-03-28 02:00:00 4.2 15 Sudeste 34 Este 0 -- -- 29
2019-03-28 01:00:00 4.9 13 Sudeste 50 Este 0 -- -- 29
2019-03-28 00:00:00 5.7 34 Este 52 Este 0 -- -- 34
2019-03-27 23:00:00 6.3 39 Este 59 Este 0 -- -- 31
2019-03-27 22:00:00 6.5 40 Este 53 Este 0 -- -- 28
2019-03-27 21:00:00 6.4 32 Este 55 Este 0 -- -- 29
2019-03-27 20:00:00 6.5 37 Este 47 Este 0 -- -- 27
2019-03-27 19:00:00 7.4 33 Este 44 Este 0 -- -- 26
2019-03-27 18:00:00 9.1 29 Este 45 Este 0 -- -- 26
2019-03-27 17:00:00 10 30 Este 55 Este 0 -- -- 25
2019-03-27 16:00:00 10.6 37 Este 56 Este 0 -- -- 21
2019-03-27 15:00:00 11.2 40 Este 61 Este 0 -- -- 20
2019-03-27 14:00:00 11.1 40 Este 49 Este 0 -- -- 19
2019-03-27 13:00:00 12.5 23 Sudeste 44 Este 0 -- -- 18
2019-03-27 12:00:00 11 30 Este 41 Este 0 -- -- 20
2019-03-27 11:00:00 11.1 20 Este 38 Este 0 -- -- 21
2019-03-27 10:00:00 9.3 24 Este 38 Este 0 -- -- 18
2019-03-27 09:00:00 7.6 30 Este 40 Este 0 -- -- 15
2019-03-27 08:00:00 3.6 28 Este 38 Este 0 -- -- 16
2019-03-27 07:00:00 2.7 11 Sudeste 30 Sudeste 0 -- -- 14
2019-03-27 06:00:00 3.2 10 Sudeste 23 Este 0 -- -- 14
2019-03-27 05:00:00 3.8 22 Este 30 Este 0 -- -- 12
2019-03-27 04:00:00 3.6 23 Este 35 Este 0 -- -- 13
2019-03-27 03:00:00 3 25 Este 35 Este 0 -- -- 15
2019-03-27 02:00:00 2.7 9 Sudeste 26 Este 0 -- -- 15
2019-03-27 01:00:00 2.9 19 Sudeste 36 Este 0 -- -- 14
2019-03-27 00:00:00 3.4 20 Sudeste 36 Este 0 -- -- 13
2019-03-26 23:00:00 3.3 9 Sudeste 42 Sudeste 0 -- -- 14
2019-03-26 22:00:00 3.9 18 Sudeste 36 Este 0 -- -- 14
2019-03-26 21:00:00 3.1 26 Este 39 Este 0 -- -- 21
2019-03-26 20:00:00 3.6 33 Este 48 Este 0 -- -- 27
2019-03-26 19:00:00 5.9 35 Este 49 Este 0 -- -- 23
2019-03-26 18:00:00 7.5 30 Este 50 Este 0 -- -- 27
2019-03-26 17:00:00 9.4 29 Sudeste 55 Sudeste 0 -- -- 22
2019-03-26 16:00:00 9.5 40 Este 57 Este 0 -- -- 20
2019-03-26 15:00:00 9.5 20 Sudeste 48 Este 0 -- -- 22
2019-03-26 14:00:00 9.2 33 Este 53 Sudeste 0 -- -- 21
2019-03-26 13:00:00 9.7 21 Sudeste 53 Este 0 -- -- 17
2019-03-26 12:00:00 8.5 23 Sudeste 41 Este 0 -- -- 17
2019-03-26 11:00:00 7.9 17 Sudeste 39 Este 0 -- -- 19
2019-03-26 10:00:00 5.9 18 Sudeste 45 Este 0 -- -- 23
2019-03-26 09:00:00 4.7 14 Sudeste 51 Este 0 -- -- 27
2019-03-26 08:00:00 2.5 39 Este 57 Este 0 -- -- 29
2019-03-26 07:00:00 1.5 45 Este 63 Este 0 -- -- 34
2019-03-26 06:00:00 1.9 42 Este 65 Este 0 -- -- 39
2019-03-26 05:00:00 1.3 37 Este 50 Este 0 -- -- 44
2019-03-26 04:00:00 0 27 Este 54 Este 0 -- -- 58
2019-03-26 03:00:00 -0.1 37 Este 52 Este 0 -- -- 70
2019-03-26 02:00:00 -0.7 38 Sudeste 56 Este 0 -- -- 81
2019-03-26 01:00:00 1.3 17 Sur 36 Sudeste 0 -- -- 50
2019-03-26 00:00:00 1.1 8 Sur 26 Sur 0 -- -- 45
2019-03-25 23:00:00 1.4 11 Sur 49 Este 0 -- -- 40
2019-03-25 22:00:00 1.9 32 Este 58 Este 0 -- -- 43
2019-03-25 21:00:00 2.1 46 Este 64 Este 0 -- -- 43
2019-03-25 20:00:00 2.2 32 Este 59 Este 0 -- -- 43
2019-03-25 19:00:00 3.6 48 Este 63 Este 0 -- -- 46
2019-03-25 18:00:00 4.9 43 Este 56 Este 0 -- -- 46
2019-03-25 17:00:00 5.7 37 Este 51 Este 0 -- -- 49
2019-03-25 16:00:00 7.5 34 Este 51 Este 0 -- -- 40
2019-03-25 15:00:00 8.4 36 Este 57 Este 0 -- -- 42
2019-03-25 14:00:00 8.8 37 Este 54 Este 0 -- -- 45
2019-03-25 13:00:00 8.9 32 Este 46 Este 0 -- -- 44
2019-03-25 12:00:00 10.9 13 Sudeste 35 Sudeste 0 -- -- 34
2019-03-25 11:00:00 11 4 Sur 14 Este 0 -- -- 38
2019-03-25 10:00:00 6.4 7 Este 15 Este 0 -- -- 43
2019-03-25 09:00:00 4 8 Este 13 Sudeste 0 -- -- 46
2019-03-25 08:00:00 3.4 3 Sudeste 6 Este 0 -- -- 44
2019-03-25 07:00:00 3 0 Calma 4 Sudeste 0 -- -- 46
2019-03-25 06:00:00 2.7 0 Calma 7 Nordeste 0 -- -- 51
2019-03-25 05:00:00 4.3 0 Calma 5 Este 0 -- -- 42
2019-03-25 04:00:00 4.5 0 Calma 10 Este 0 -- -- 41
2019-03-25 03:00:00 4.8 6 Este 10 Este 0 -- -- 46
2019-03-25 02:00:00 5 8 Este 13 Este 0 -- -- 44
2019-03-25 01:00:00 5.2 8 Sudeste 17 Este 0 -- -- 46
2019-03-25 00:00:00 5.7 13 Este 19 Sudeste 0 -- -- 47
2019-03-24 23:00:00 5.2 13 Sudeste 22 Sudeste 0 -- -- 53
2019-03-24 22:00:00 5.1 13 Este 25 Este 0 -- -- 55
2019-03-24 21:00:00 6.2 16 Este 29 Este 0 -- -- 51
2019-03-24 20:00:00 7.1 15 Este 28 Este 0 -- -- 50
2019-03-24 19:00:00 8.9 12 Este 22 Este 0 -- -- 45
2019-03-24 18:00:00 10 15 Este 30 Este 0 -- -- 44
2019-03-24 17:00:00 12.8 16 Este 24 Sudeste 0 -- -- 38
2019-03-24 16:00:00 13.4 14 Este 33 Sudeste 0 -- -- 39
2019-03-24 15:00:00 14.4 15 Sudeste 31 Este 0 -- -- 40
2019-03-24 14:00:00 11.5 14 Este 29 Este 0 -- -- 42
2019-03-24 13:00:00 13.6 11 Sudeste 29 Este 0 -- -- 41
2019-03-24 12:00:00 14.1 7 Sudeste 22 Este 0 -- -- 37
2019-03-24 11:00:00 13.4 7 Sur 19 Sudeste 0 -- -- 37
2019-03-24 10:00:00 11.8 4 Sudeste 8 Este 0 -- -- 40
2019-03-24 09:00:00 8 8 Este 13 Este 0 -- -- 46
2019-03-24 08:00:00 3.7 10 Este 13 Este 0 -- -- 61
2019-03-24 07:00:00 4.1 10 Este 13 Este 0 -- -- 61
2019-03-24 06:00:00 5.2 12 Este 13 Este 0 -- -- 60
2019-03-24 05:00:00 6.2 10 Este 14 Este 0 -- -- 59
2019-03-24 04:00:00 4.8 12 Este 20 Este 0 -- -- 64
2019-03-24 03:00:00 4.3 13 Este 18 Este 0 -- -- 64
2019-03-24 02:00:00 5.1 14 Este 17 Este 0 -- -- 60
2019-03-24 01:00:00 5.8 9 Este 13 Este 0 -- -- 56
2019-03-24 00:00:00 6.8 12 Este 15 Este 0 -- -- 53
2019-03-23 23:00:00 6.4 8 Este 11 Este 0 -- -- 56
2019-03-23 22:00:00 7 10 Este 12 Este 0 -- -- 53
2019-03-23 21:00:00 7.8 11 Este 14 Este 0 -- -- 47
2019-03-23 20:00:00 9.4 7 Sur 16 Sudoeste 0 -- -- 39
2019-03-23 19:00:00 11.4 13 Sudoeste 21 Sudoeste 0 -- -- 35
2019-03-23 18:00:00 13.7 14 Sudoeste 28 Sudoeste 0 -- -- 34
2019-03-23 17:00:00 14.4 10 Sudoeste 29 Sudoeste 0 -- -- 33
2019-03-23 16:00:00 15.4 8 Sur 22 Sur 0 -- -- 33
2019-03-23 15:00:00 15.2 8 Sudoeste 27 Oeste 0 -- -- 31
2019-03-23 14:00:00 14.5 10 Oeste 24 Oeste 0 -- -- 36
2019-03-23 13:00:00 14.5 8 Oeste 24 Sudoeste 0 -- -- 35
2019-03-23 12:00:00 12.5 11 Sudoeste 22 Sudoeste 0 -- -- 40
2019-03-23 11:00:00 11.3 7 Este 17 Este 0 -- -- 40
2019-03-23 10:00:00 10.1 3 Este 6 Sudeste 0 -- -- 44
2019-03-23 09:00:00 9.8 0 Calma 3 Nordeste 0 -- -- 46
2019-03-23 08:00:00 4.5 2 Este 7 Sudeste 0 -- -- 60
2019-03-23 07:00:00 4 5 Sudeste 9 Sudoeste 0 -- -- 60
2019-03-23 06:00:00 4.1 4 Sudoeste 10 Sudoeste 0 -- -- 58
2019-03-23 05:00:00 4.5 0 Calma 7 Este 0 -- -- 54
2019-03-23 04:00:00 4.5 6 Este 12 Este 0 -- -- 54
2019-03-23 03:00:00 4 10 Este 14 Este 0 -- -- 55
2019-03-23 02:00:00 4.2 12 Este 14 Este 0 -- -- 55
2019-03-23 01:00:00 3.8 13 Este 16 Este 0 -- -- 58
2019-03-23 00:00:00 4.7 11 Este 13 Este 0 -- -- 56
2019-03-22 23:00:00 4.4 9 Este 13 Este 0 -- -- 56
2019-03-22 22:00:00 5.6 4 Este 7 Sudeste 0 -- -- 50
2019-03-22 21:00:00 6.1 3 Sur 13 Sudoeste 0 -- -- 47
2019-03-22 20:00:00 6.7 8 Sudoeste 21 Sur 0 -- -- 47
2019-03-22 19:00:00 9.5 14 Sudoeste 26 Sudoeste 0 -- -- 42
2019-03-22 18:00:00 11.9 16 Sudoeste 27 Sudoeste 0 -- -- 37
2019-03-22 17:00:00 13.3 15 Sudoeste 27 Sudoeste 0 -- -- 35
2019-03-22 16:00:00 14.4 8 Oeste 23 Sudoeste 0 -- -- 30
2019-03-22 15:00:00 13.9 7 Sudoeste 24 Sudoeste 0 -- -- 31
2019-03-22 14:00:00 13 12 Sudoeste 21 Sudoeste 0 -- -- 30
2019-03-22 13:00:00 12.6 6 Noroeste 20 Oeste 0 -- -- 31
2019-03-22 12:00:00 10.7 12 Oeste 26 Oeste 0 -- -- 32
2019-03-22 11:00:00 8.6 17 Oeste 27 Oeste 0 -- -- 36
2019-03-22 10:00:00 6.5 7 Oeste 13 Noroeste 0 -- -- 39
2019-03-22 09:00:00 4.7 4 Oeste 14 Noroeste 0 -- -- 40
2019-03-22 08:00:00 1.4 4 Oeste 12 Oeste 0 -- -- 55
2019-03-22 07:00:00 1.4 7 Noroeste 13 Noroeste 0 -- -- 54
2019-03-22 06:00:00 1.8 12 Noroeste 18 Oeste 0 -- -- 55
2019-03-22 05:00:00 1.2 14 Oeste 18 Sudoeste 0 -- -- 59
2019-03-22 04:00:00 2 6 Sudoeste 9 Sudoeste 0 -- -- 54
2019-03-22 03:00:00 2.1 5 Oeste 8 Oeste 0 -- -- 52
2019-03-22 02:00:00 2.2 3 Noroeste 5 Norte 0 -- -- 53
2019-03-22 01:00:00 1.6 0 Calma 6 Sudoeste 0 -- -- 56
2019-03-22 00:00:00 1.2 2 Sur 8 Este 0 -- -- 68
2019-03-21 23:00:00 0.6 8 Este 17 Este 0 -- -- 78
2019-03-21 22:00:00 0 14 Este 20 Este 0 -- -- 84
2019-03-21 21:00:00 0.7 17 Este 26 Este 0 -- -- 82
2019-03-21 20:00:00 1.6 18 Este 23 Este 0 -- -- 76
2019-03-21 19:00:00 7 6 Sur 20 Sudeste 0 -- -- 35
2019-03-21 18:00:00 8 12 Este 26 Este 0 -- -- 30
2019-03-21 17:00:00 9.9 10 Sudeste 27 Este 0 -- -- 27
2019-03-21 16:00:00 9 9 Sudeste 29 Este 0 -- -- 38
2019-03-21 15:00:00 10.1 7 Sudeste 23 Sudeste 0 -- -- 38
2019-03-21 14:00:00 9.7 6 Sudeste 21 Este 0 -- -- 34
2019-03-21 13:00:00 9.7 7 Sudeste 23 Sudeste 0 -- -- 33
2019-03-21 12:00:00 9.6 10 Sudeste 25 Este 0 -- -- 29
2019-03-21 11:00:00 8 8 Sur 23 Este 0 -- -- 28
2019-03-21 10:00:00 6.8 4 Sur 14 Sur 0 -- -- 34
2019-03-21 09:00:00 4.4 3 Sudeste 12 Sudeste 0 -- -- 38
2019-03-21 08:00:00 -1.6 6 Sudeste 13 Sudeste 0 -- -- 56
2019-03-21 07:00:00 -2.3 9 Este 14 Este 0 -- -- 59
2019-03-21 06:00:00 -2.2 4 Sudeste 13 Este 0 -- -- 53
2019-03-21 05:00:00 -1 6 Sudeste 18 Este 0 -- -- 35
2019-03-21 04:00:00 -0.7 6 Este 22 Este 0 -- -- 26
2019-03-21 03:00:00 0.6 5 Oeste 28 Sur 0 -- -- 24
2019-03-21 02:00:00 0.7 10 Sudeste 49 Sudeste 0 -- -- 23
2019-03-21 01:00:00 0.9 22 Sudeste 45 Este 0 -- -- 23
2019-03-21 00:00:00 1.9 28 Sudeste 53 Este 0 -- -- 22